Time;durP1;ratioP1;P1;durP2;ratioP2;P2;SDS_P1;SDS_P2;PMS_P1;PMS_P2;Temp;Humidity;BMP_temperature;BMP_pressure;BME280_temperature;BME280_humidity;BME280_pressure;Samples;Min_cycle;Max_cycle;Signal;HPM_P1;HPM_P2
2022/10/30 00:00:34;;;;;;;11.52;6.10;;;19.60;93.40;;;19.43;70.34;99218.28;5056529;28;20040;-77
2022/10/30 00:03:20;;;;;;;9.50;5.82;;;19.60;93.40;;;19.43;70.12;99214.72;5058674;28;20532;-77
2022/10/30 00:05:48;;;;;;;9.68;5.95;;;19.60;93.40;;;19.42;70.79;99221.38;5047776;28;20115;-77
2022/10/30 00:08:17;;;;;;;9.52;6.03;;;19.60;93.50;;;19.39;71.78;99214.56;5041516;28;20044;-77
2022/10/30 00:10:43;;;;;;;10.77;6.38;;;19.60;93.60;;;19.42;71.20;99226.88;5037152;28;20045;-77
2022/10/30 00:13:09;;;;;;;13.30;6.07;;;19.60;93.60;;;19.41;70.68;99231.56;5040531;28;20051;-77
2022/10/30 00:15:36;;;;;;;9.25;6.00;;;19.60;93.40;;;19.39;70.68;99238.53;5039790;28;20079;-77
2022/10/30 00:18:02;;;;;;;7.32;5.13;;;19.60;93.50;;;19.38;70.56;99223.94;5039738;28;20048;-77
2022/10/30 00:20:28;;;;;;;10.88;5.82;;;19.60;93.40;;;19.40;70.51;99218.13;5053664;28;20590;-77
2022/10/30 00:22:54;;;;;;;14.75;6.45;;;19.60;93.40;;;19.39;71.59;99228.34;5039286;28;20092;-77
2022/10/30 00:25:20;;;;;;;9.30;6.07;;;19.60;93.60;;;19.40;71.45;99224.44;5050889;28;20115;-77
2022/10/30 00:27:46;;;;;;;11.18;6.05;;;19.60;93.60;;;19.39;71.60;99227.53;5042709;28;20040;-78
2022/10/30 00:30:14;;;;;;;11.85;6.25;;;19.60;93.50;;;19.38;70.89;99228.66;5026405;28;20052;-77
2022/10/30 00:32:41;;;;;;;8.18;5.20;;;19.60;93.50;;;19.36;70.83;99233.66;5034972;28;20102;-77
2022/10/30 00:35:09;;;;;;;8.77;5.18;;;19.50;93.40;;;19.36;70.91;99244.66;5031188;28;20536;-77
2022/10/30 00:37:35;;;;;;;9.38;5.32;;;19.50;93.40;;;19.36;71.04;99239.97;5055762;28;20040;-77
2022/10/30 00:40:01;;;;;;;12.07;6.18;;;19.60;93.60;;;19.39;71.99;99235.78;5051993;28;20150;-77
2022/10/30 00:42:30;;;;;;;8.27;5.57;;;19.60;93.70;;;19.37;71.88;99238.84;5033787;28;20037;-77
2022/10/30 00:44:56;;;;;;;13.27;7.13;;;19.60;93.70;;;19.36;71.19;99239.97;5038295;28;20821;-77
2022/10/30 00:47:35;;;;;;;7.70;5.50;;;19.50;93.50;;;19.32;71.08;99239.00;5052434;28;20044;-77
2022/10/30 00:50:09;;;;;;;8.98;5.47;;;19.50;93.50;;;19.35;70.50;99241.09;5036729;28;20148;-77
2022/10/30 00:52:49;;;;;;;9.70;5.20;;;19.50;93.50;;;19.34;70.67;99223.00;5067118;28;20423;-78
2022/10/30 00:55:19;;;;;;;9.73;5.78;;;19.50;93.40;;;19.36;71.78;99214.41;5038194;28;20044;-77
2022/10/30 00:58:06;;;;;;;10.68;6.20;;;19.50;93.60;;;19.35;71.83;99210.03;5024893;28;20040;-77
2022/10/30 01:00:33;;;;;;;8.38;5.05;;;19.50;93.60;;;19.35;71.10;99197.09;5032197;28;20128;-77
2022/10/30 01:02:58;;;;;;;6.65;4.63;;;19.50;93.50;;;19.32;71.17;99188.69;5029671;28;20060;-78
2022/10/30 01:05:26;;;;;;;10.95;5.90;;;19.50;93.40;;;19.32;70.86;99197.75;5030316;28;20124;-77
2022/10/30 01:07:53;;;;;;;7.45;5.03;;;19.50;93.40;;;19.33;70.58;99201.28;5015494;28;20045;-77
2022/10/30 01:10:19;;;;;;;8.75;5.47;;;19.50;93.40;;;19.35;70.93;99218.28;5015737;28;20057;-77
2022/10/30 01:12:45;;;;;;;9.38;5.65;;;19.50;93.50;;;19.38;71.47;99231.41;5018696;28;20041;-77
2022/10/30 01:15:13;;;;;;;11.05;5.72;;;19.50;93.60;;;19.37;71.44;99218.78;5012373;28;20606;-78
2022/10/30 01:18:20;;;;;;;8.40;5.22;;;19.50;93.60;;;19.34;70.92;99228.50;5010130;28;20048;-77
2022/10/30 01:21:14;;;;;;;9.57;6.03;;;19.50;93.50;;;19.29;70.94;99218.44;5029089;28;20069;-77
2022/10/30 01:23:49;;;;;;;6.90;5.05;;;19.50;93.50;;;19.28;70.63;99205.84;4984493;28;20058;-77
2022/10/30 01:26:37;;;;;;;7.57;4.70;;;19.50;93.50;;;19.28;71.55;99194.00;5035237;28;20063;-77
2022/10/30 01:29:25;;;;;;;7.60;4.93;;;19.40;93.60;;;19.29;72.13;99198.38;4999487;28;20128;-78
2022/10/30 01:32:36;;;;;;;9.60;5.03;;;19.50;93.70;;;19.30;71.73;99203.53;5015243;28;20044;-77
2022/10/30 01:35:17;;;;;;;7.25;4.88;;;19.50;93.70;;;19.27;71.33;99204.19;5055801;28;20048;-77
2022/10/30 01:37:55;;;;;;;11.18;5.63;;;19.40;93.50;;;19.27;71.04;99201.44;5051733;28;20120;-77
2022/10/30 01:40:21;;;;;;;7.97;5.18;;;19.40;93.50;;;19.25;71.05;99200.94;5055567;28;20042;-77
2022/10/30 01:42:55;;;;;;;10.50;5.53;;;19.40;93.50;;;19.23;71.92;99196.91;5040291;28;20508;-77
2022/10/30 01:45:31;;;;;;;7.57;5.32;;;19.40;93.60;;;19.24;72.67;99182.84;5046515;28;20114;-77
2022/10/30 01:48:09;;;;;;;12.63;5.70;;;19.40;93.70;;;19.25;72.72;99183.66;5052621;28;20091;-77
2022/10/30 01:50:55;;;;;;;7.60;4.82;;;19.40;93.60;;;19.24;71.68;99198.53;5049872;28;20135;-77
2022/10/30 01:53:44;;;;;;;9.18;4.47;;;19.40;93.50;;;19.26;71.15;99202.59;5034375;28;20587;-77
2022/10/30 01:56:19;;;;;;;7.43;4.90;;;19.40;93.50;;;19.26;70.79;99207.28;5066867;28;20041;-77
2022/10/30 01:59:21;;;;;;;8.40;5.20;;;19.40;93.50;;;19.25;72.07;99209.19;5056296;28;20120;-78
2022/10/30 02:01:47;;;;;;;7.18;5.28;;;19.40;93.60;;;19.29;72.04;99195.63;5056312;28;20097;-78
2022/10/30 02:04:14;;;;;;;7.22;5.13;;;19.50;93.70;;;19.30;71.90;99192.53;5043535;28;20043;-77
2022/10/30 02:06:40;;;;;;;8.80;5.40;;;19.40;93.60;;;19.27;71.09;99195.94;5038655;28;20080;-77
2022/10/30 02:09:06;;;;;;;7.97;4.45;;;19.40;93.50;;;19.27;71.05;99193.19;5023123;28;20051;-78
2022/10/30 02:11:33;;;;;;;7.38;4.95;;;19.40;93.50;;;19.25;70.95;99195.44;5054262;28;20127;-78
2022/10/30 02:14:00;;;;;;;10.48;5.22;;;19.40;93.50;;;19.22;71.19;99190.59;5020505;28;20057;-78
2022/10/30 02:16:26;;;;;;;8.68;5.57;;;19.40;93.50;;;19.25;71.91;99195.44;5055687;28;20045;-77
2022/10/30 02:18:52;;;;;;;8.00;5.47;;;19.40;93.60;;;19.25;72.20;99203.69;5048936;28;20045;-78
2022/10/30 02:21:18;;;;;;;9.40;5.15;;;19.40;93.60;;;19.23;71.89;99206.00;5041685;28;20037;-77
2022/10/30 02:23:44;;;;;;;7.40;5.38;;;19.40;93.60;;;19.23;71.25;99208.75;5056177;28;20155;-77
2022/10/30 02:26:10;;;;;;;6.78;4.97;;;19.40;93.50;;;19.21;71.40;99205.50;5039324;28;20123;-77
2022/10/30 02:28:36;;;;;;;10.20;5.05;;;19.40;93.50;;;19.23;71.04;99208.75;5035816;28;20059;-77
2022/10/30 02:31:02;;;;;;;6.82;4.30;;;19.30;93.40;;;19.23;71.66;99211.50;5054782;28;20059;-77
2022/10/30 02:33:28;;;;;;;8.75;5.20;;;19.40;93.60;;;19.22;72.74;99201.59;5036903;28;20123;-77
2022/10/30 02:35:54;;;;;;;9.27;5.68;;;19.40;93.70;;;19.22;72.43;99218.09;5038394;28;20451;-77
2022/10/30 02:38:20;;;;;;;8.43;5.32;;;19.40;93.70;;;19.20;71.93;99208.56;5022031;28;20679;-77
2022/10/30 02:40:46;;;;;;;10.15;4.80;;;19.40;93.60;;;19.19;71.61;99213.25;5038458;28;20117;-77
2022/10/30 02:43:13;;;;;;;6.82;3.95;;;19.40;93.60;;;19.18;71.49;99208.06;5042743;28;20436;-77
2022/10/30 02:45:38;;;;;;;8.15;5.00;;;19.30;93.50;;;19.17;71.47;99207.25;5038621;28;20081;-77
2022/10/30 02:48:06;;;;;;;6.53;4.43;;;19.40;93.50;;;19.21;71.87;99222.00;5033988;28;20076;-77
2022/10/30 02:50:32;;;;;;;8.48;4.63;;;19.30;93.60;;;19.20;72.38;99228.59;5023627;28;20045;-77
2022/10/30 02:52:58;;;;;;;7.95;5.20;;;19.30;93.60;;;19.20;72.13;99220.34;5023934;28;20072;-77
2022/10/30 02:55:24;;;;;;;6.60;5.03;;;19.30;93.60;;;19.17;71.85;99218.25;5056373;28;20074;-77
2022/10/30 02:57:50;;;;;;;6.20;5.03;;;19.30;93.60;;;19.18;71.57;99210.81;5052684;28;20043;-77
2022/10/30 03:00:16;;;;;;;7.35;5.75;;;19.30;93.50;;;19.17;71.52;99207.25;5050236;28;20044;-78
2022/10/30 03:02:42;;;;;;;7.43;4.88;;;19.30;93.50;;;19.16;71.40;99211.16;5051143;28;20048;-77
2022/10/30 03:05:08;;;;;;;6.07;4.88;;;19.30;93.50;;;19.16;72.63;99200.16;5050498;28;20044;-77
2022/10/30 03:07:34;;;;;;;8.32;5.40;;;19.30;93.70;;;19.17;72.49;99188.00;5024103;28;20060;-77
2022/10/30 03:10:00;;;;;;;6.65;4.70;;;19.40;93.70;;;19.14;72.37;99183.16;5036978;28;20092;-77
2022/10/30 03:12:26;;;;;;;6.43;4.60;;;19.30;93.60;;;19.15;71.91;99183.97;5043582;28;20056;-77
2022/10/30 03:14:53;;;;;;;6.70;4.30;;;19.30;93.50;;;19.16;71.48;99193.81;5040112;28;20036;-77
2022/10/30 03:17:19;;;;;;;7.15;4.63;;;19.30;93.50;;;19.14;71.64;99199.66;5025600;28;20044;-77
2022/10/30 03:19:45;;;;;;;8.57;5.20;;;19.30;93.60;;;19.16;72.26;99199.31;5054993;28;20490;-77
2022/10/30 03:22:11;;;;;;;9.73;5.28;;;19.30;93.60;;;19.15;72.62;99204.00;5049277;28;20112;-77
2022/10/30 03:24:37;;;;;;;4.75;4.10;;;19.30;93.70;;;19.17;72.46;99193.50;5044427;28;20108;-77
2022/10/30 03:27:03;;;;;;;5.50;4.25;;;19.30;93.70;;;19.18;71.61;99195.13;5050226;28;20033;-77
2022/10/30 03:29:29;;;;;;;8.00;4.93;;;19.30;93.50;;;19.16;71.47;99188.31;5068186;28;20938;-77
2022/10/30 03:31:55;;;;;;;6.65;4.35;;;19.30;93.50;;;19.15;71.31;99190.25;5042824;28;20033;-77
2022/10/30 03:34:21;;;;;;;6.85;4.93;;;19.30;93.50;;;19.13;71.54;99197.22;5053287;28;20051;-77
2022/10/30 03:36:47;;;;;;;7.45;5.20;;;19.30;93.50;;;19.15;72.62;99187.50;5022394;28;20098;-77
2022/10/30 03:39:14;;;;;;;6.53;4.53;;;19.30;93.70;;;19.15;72.84;99190.25;5050877;28;20117;-77
2022/10/30 03:41:42;;;;;;;8.07;4.82;;;19.30;93.70;;;19.14;72.34;99183.16;5028653;28;20124;-77
2022/10/30 03:44:08;;;;;;;7.28;4.82;;;19.30;93.70;;;19.11;72.00;99180.22;5010147;28;20111;-77
2022/10/30 03:46:34;;;;;;;7.20;4.32;;;19.30;93.50;;;19.10;71.75;99193.16;5049263;28;20120;-77
2022/10/30 03:49:00;;;;;;;5.85;4.38;;;19.30;93.50;;;19.12;71.57;99190.91;5069407;28;20076;-78
2022/10/30 03:51:26;;;;;;;4.90;4.03;;;19.30;93.50;;;19.11;71.96;99185.72;5041462;28;20040;-77
2022/10/30 03:53:52;;;;;;;5.70;3.85;;;19.30;93.60;;;19.08;71.02;99196.25;5052873;28;20136;-77
2022/10/30 03:56:18;;;;;;;5.53;4.47;;;19.20;93.40;;;19.07;70.14;99199.31;5050792;28;20374;-77
2022/10/30 03:58:44;;;;;;;5.60;4.00;;;19.20;93.30;;;19.07;69.78;99189.13;5055970;28;20453;-77
2022/10/30 04:01:11;;;;;;;5.47;4.57;;;19.20;93.20;;;19.06;69.59;99186.69;5072656;28;20040;-77
2022/10/30 04:03:37;;;;;;;6.95;4.65;;;19.20;93.10;;;19.08;71.11;99189.91;5041639;28;20123;-77
2022/10/30 04:06:05;;;;;;;8.05;4.03;;;19.20;93.50;;;19.11;71.56;99188.47;5035952;28;20036;-77
2022/10/30 04:08:31;;;;;;;6.07;4.20;;;19.20;93.50;;;19.11;71.45;99188.47;5054118;28;20123;-77
2022/10/30 04:10:57;;;;;;;5.60;4.35;;;19.20;93.50;;;19.08;69.58;99178.91;5056673;28;20365;-77
2022/10/30 04:13:23;;;;;;;5.38;4.13;;;19.20;93.20;;;19.09;69.36;99186.06;5012812;28;20055;-77
2022/10/30 04:15:50;;;;;;;5.53;4.10;;;19.20;93.10;;;19.08;69.01;99189.91;5025223;28;20100;-77
2022/10/30 04:18:16;;;;;;;5.50;4.40;;;19.20;93.10;;;19.08;68.99;99190.75;5051044;28;20048;-77
2022/10/30 04:20:43;;;;;;;5.60;4.15;;;19.20;93.20;;;19.08;70.52;99185.25;5054702;28;20556;-77
2022/10/30 04:23:13;;;;;;;5.85;4.10;;;19.20;93.50;;;19.11;70.45;99182.97;5041414;28;20052;-77
2022/10/30 04:25:39;;;;;;;6.50;4.60;;;19.20;93.50;;;19.06;69.99;99179.25;5011416;28;20037;-77
2022/10/30 04:28:05;;;;;;;6.57;4.50;;;19.20;93.30;;;19.05;69.07;99179.56;5057904;28;20072;-77
2022/10/30 04:30:35;;;;;;;5.78;4.40;;;19.20;93.10;;;19.07;68.50;99178.13;5050951;28;20460;-77
2022/10/30 04:33:03;;;;;;;5.30;4.10;;;19.10;93.00;;;19.10;68.06;99171.16;5032189;28;20047;-77
2022/10/30 04:35:32;;;;;;;5.78;3.83;;;19.10;93.20;;;19.11;68.94;99182.97;5040120;28;20100;-78
2022/10/30 04:38:03;;;;;;;6.03;4.32;;;19.10;93.40;;;19.07;69.83;99182.81;5031632;28;20036;-78
2022/10/30 04:40:32;;;;;;;5.15;3.47;;;19.10;93.40;;;19.09;69.77;99175.88;5058913;28;20422;-78
2022/10/30 04:42:59;;;;;;;8.43;4.13;;;19.20;93.40;;;19.09;68.14;99183.31;5069582;28;20151;-78
2022/10/30 04:45:25;;;;;;;7.55;3.80;;;19.20;93.00;;;19.08;67.98;99178.91;5018669;28;20049;-78
2022/10/30 04:47:51;;;;;;;7.10;4.80;;;19.10;93.00;;;19.10;67.77;99182.16;5052916;28;20061;-78
2022/10/30 04:50:17;;;;;;;5.63;4.38;;;19.10;93.00;;;19.07;67.50;99193.81;5043571;28;20051;-78
2022/10/30 04:52:43;;;;;;;5.80;4.22;;;19.00;93.00;;;19.09;68.51;99194.31;5001731;28;20045;-78
2022/10/30 04:55:09;;;;;;;4.88;3.50;;;19.10;93.40;;;19.05;69.35;99185.88;5012136;28;20037;-78
2022/10/30 04:57:36;;;;;;;4.95;3.55;;;19.10;93.40;;;19.05;68.75;99185.88;5039025;28;20064;-78
2022/10/30 05:00:06;;;;;;;4.97;3.67;;;19.20;93.30;;;19.03;67.76;99195.56;5036630;28;20448;-78
2022/10/30 05:02:36;;;;;;;4.63;3.92;;;19.20;93.10;;;19.07;67.59;99193.81;5006817;28;20103;-78
2022/10/30 05:05:03;;;;;;;4.60;3.63;;;19.10;93.00;;;19.02;67.59;99199.47;5035461;28;20040;-78
2022/10/30 05:07:29;;;;;;;4.55;3.65;;;19.00;93.00;;;19.06;67.53;99198.50;5021124;28;20052;-78
2022/10/30 05:09:55;;;;;;;5.05;4.30;;;19.10;93.10;;;19.05;68.79;99196.06;5005993;28;20041;-78
2022/10/30 05:12:21;;;;;;;5.45;4.13;;;19.10;93.30;;;19.04;69.02;99205.44;5025075;28;20521;-78
2022/10/30 05:14:47;;;;;;;5.35;4.85;;;19.10;93.30;;;19.05;68.04;99202.38;5037368;28;20041;-78
2022/10/30 05:17:13;;;;;;;5.97;3.92;;;19.10;93.00;;;19.03;67.50;99201.06;5026630;28;20047;-78
2022/10/30 05:19:39;;;;;;;4.47;3.95;;;19.10;93.00;;;19.01;67.37;99206.09;5021757;28;20041;-77
2022/10/30 05:22:08;;;;;;;3.95;3.58;;;19.10;93.00;;;19.03;66.85;99203.81;5034689;28;20072;-78
2022/10/30 05:24:34;;;;;;;5.45;3.63;;;19.00;93.30;;;19.04;67.87;99210.94;5025742;28;20106;-78
2022/10/30 05:27:00;;;;;;;4.43;3.47;;;19.00;93.20;;;19.01;68.56;99208.84;5037051;28;20123;-78
2022/10/30 05:29:26;;;;;;;4.32;3.92;;;19.00;93.20;;;19.02;68.87;99205.75;5037507;28;20079;-78
2022/10/30 05:31:51;;;;;;;4.90;4.40;;;19.10;93.20;;;19.04;67.25;99205.44;5058316;28;20051;-78
2022/10/30 05:34:18;;;;;;;4.82;4.03;;;19.10;93.00;;;19.06;66.94;99209.50;5036477;28;20037;-78
2022/10/30 05:36:43;;;;;;;4.57;3.58;;;19.00;93.00;;;19.08;66.52;99195.41;5003591;28;20044;-78
2022/10/30 05:39:09;;;;;;;5.63;4.05;;;19.00;93.00;;;19.06;66.38;99203.19;5019861;28;20045;-78
2022/10/30 05:41:36;;;;;;;5.68;3.67;;;19.00;93.00;;;19.05;67.83;99198.81;5022253;28;20052;-78
2022/10/30 05:44:02;;;;;;;5.38;4.35;;;19.00;93.30;;;19.01;67.97;99201.41;5021570;28;20044;-78
2022/10/30 05:46:28;;;;;;;4.72;3.95;;;19.10;93.20;;;19.05;67.27;99196.88;5020610;28;20045;-78
2022/10/30 05:48:54;;;;;;;4.63;4.10;;;19.10;93.10;;;19.07;66.40;99194.63;5034492;28;20058;-78
2022/10/30 05:51:20;;;;;;;4.20;3.80;;;19.10;92.90;;;19.07;66.58;99218.56;5038421;28;20127;-78
2022/10/30 05:53:49;;;;;;;4.57;3.47;;;19.00;93.00;;;19.07;66.76;99222.09;5019717;28;20044;-78
2022/10/30 05:56:15;;;;;;;3.92;3.20;;;19.10;93.00;;;19.05;66.87;99218.06;5054091;28;20036;-78
2022/10/30 05:58:42;;;;;;;5.03;4.13;;;19.10;93.00;;;19.04;66.98;99227.44;5055408;28;20071;-78
2022/10/30 06:01:08;;;;;;;5.32;3.72;;;19.10;93.00;;;19.03;66.90;99234.06;5012332;28;20119;-78
2022/10/30 06:03:34;;;;;;;5.75;4.20;;;19.10;93.00;;;19.02;67.62;99229.69;5036646;28;20197;-78
2022/10/30 06:06:00;;;;;;;5.57;4.22;;;19.10;93.00;;;19.04;67.83;99222.75;5037411;28;20531;-78
2022/10/30 06:08:28;;;;;;;4.25;3.55;;;19.10;93.10;;;19.08;67.57;99225.66;5051932;28;20040;-78
2022/10/30 06:10:54;;;;;;;4.65;3.92;;;19.20;93.20;;;19.08;67.22;99221.00;5034351;28;20059;-78
2022/10/30 06:13:21;;;;;;;6.22;4.13;;;19.20;93.00;;;19.05;67.20;99224.38;5018599;28;20037;-78
2022/10/30 06:15:47;;;;;;;4.57;3.70;;;19.20;93.00;;;19.08;67.17;99211.91;5051410;28;20051;-77
2022/10/30 06:18:13;;;;;;;4.78;3.70;;;19.20;93.10;;;19.07;67.08;99204.81;5052848;28;20063;-78
2022/10/30 06:20:39;;;;;;;5.90;4.13;;;19.20;93.00;;;19.06;67.70;99211.44;5018511;28;20408;-77
2022/10/30 06:23:06;;;;;;;4.55;3.70;;;19.20;93.10;;;19.12;67.70;99206.59;5018382;28;20056;-77
2022/10/30 06:25:34;;;;;;;4.32;3.70;;;19.20;93.20;;;19.12;67.48;99215.66;5036285;28;20067;-77
2022/10/30 06:28:00;;;;;;;4.40;3.83;;;19.20;93.10;;;19.10;67.27;99212.41;5017767;28;20043;-78
2022/10/30 06:30:26;;;;;;;5.13;3.85;;;19.10;93.00;;;19.13;67.14;99205.47;5018530;28;20037;-77
2022/10/30 06:32:59;;;;;;;4.93;3.90;;;19.20;93.00;;;19.13;66.91;99203.50;5045108;28;20048;-80
2022/10/30 06:35:25;;;;;;;6.28;3.97;;;19.20;93.00;;;19.14;67.05;99209.84;5037058;28;20800;-78
2022/10/30 06:37:53;;;;;;;5.85;3.85;;;19.20;93.00;;;19.16;67.34;99208.41;5051793;28;20132;-78
2022/10/30 06:40:19;;;;;;;4.15;3.67;;;19.20;93.10;;;19.19;67.21;99217.94;5030540;28;20048;-77
2022/10/30 06:42:48;;;;;;;3.90;3.28;;;19.20;93.10;;;19.17;67.10;99207.25;5041735;28;20055;-78
2022/10/30 06:45:14;;;;;;;6.65;4.13;;;19.20;93.00;;;19.19;66.91;99228.94;5040243;28;20588;-79
2022/10/30 06:47:42;;;;;;;5.03;4.00;;;19.20;93.00;;;19.21;66.75;99219.25;5030968;28;20045;-77
2022/10/30 06:50:11;;;;;;;4.40;3.45;;;19.30;93.00;;;19.21;66.56;99222.00;5040437;28;20048;-76
2022/10/30 06:52:37;;;;;;;10.40;3.58;;;19.30;93.10;;;19.25;66.94;99225.72;5026819;28;20060;-76
2022/10/30 06:55:04;;;;;;;7.53;3.88;;;19.30;93.10;;;19.26;67.06;99221.03;5012890;28;20123;-76
2022/10/30 06:57:30;;;;;;;5.85;4.47;;;19.30;93.10;;;19.27;66.77;99220.69;5039138;28;20378;-76
2022/10/30 06:59:56;;;;;;;4.70;4.07;;;19.40;93.10;;;19.26;66.44;99205.34;5006470;28;20048;-76
2022/10/30 07:02:22;;;;;;;6.28;4.43;;;19.30;92.90;;;19.28;66.29;99211.34;5027057;28;20045;-77
2022/10/30 07:04:49;;;;;;;5.55;3.90;;;19.30;92.90;;;19.29;65.91;99207.44;5009408;28;20393;-76
2022/10/30 07:07:15;;;;;;;5.03;3.80;;;19.30;92.90;;;19.30;65.91;99211.00;5003047;28;20481;-76
2022/10/30 07:09:41;;;;;;;5.07;3.80;;;19.40;92.90;;;19.30;66.61;99213.75;5018645;28;20052;-79
2022/10/30 07:12:07;;;;;;;4.35;3.50;;;19.40;93.00;;;19.28;67.13;99211.34;5012714;28;20484;-79
2022/10/30 07:14:34;;;;;;;4.93;4.38;;;19.40;93.10;;;19.29;66.56;99212.94;4973709;28;20500;-79
2022/10/30 07:17:00;;;;;;;4.88;3.83;;;19.40;93.00;;;19.30;66.39;99216.50;5023437;28;20056;-79
2022/10/30 07:19:27;;;;;;;7.97;3.92;;;19.40;93.00;;;19.32;66.10;99210.69;5020790;28;20041;-79
2022/10/30 07:21:53;;;;;;;7.40;4.05;;;19.40;92.90;;;19.29;66.31;99207.44;5005988;28;20095;-79
2022/10/30 07:24:19;;;;;;;4.15;3.78;;;19.40;92.80;;;19.26;65.59;99202.59;4998303;28;20076;-79
2022/10/30 07:26:45;;;;;;;5.35;3.47;;;19.40;92.70;;;19.25;65.04;99200.16;5003915;28;20041;-79
2022/10/30 07:29:11;;;;;;;11.05;4.13;;;19.40;92.60;;;19.25;64.79;99211.94;5017327;28;20055;-79
2022/10/30 07:31:37;;;;;;;6.95;4.80;;;19.40;92.50;;;19.24;64.28;99217.78;5003403;28;20132;-79
2022/10/30 07:34:03;;;;;;;5.05;4.28;;;19.40;92.30;;;19.30;63.53;99224.75;5013129;28;20103;-79
2022/10/30 07:36:29;;;;;;;7.75;4.60;;;19.40;92.30;;;19.32;63.36;99225.25;5021927;28;20083;-79
2022/10/30 07:38:55;;;;;;;4.95;4.45;;;19.40;92.30;;;19.33;63.42;99224.09;5010542;28;20037;-79
2022/10/30 07:41:21;;;;;;;4.05;3.67;;;19.40;92.30;;;19.35;63.70;99221.84;5015826;28;20051;-79
2022/10/30 07:43:48;;;;;;;5.57;4.65;;;19.40;92.30;;;19.39;63.46;99231.09;4994614;28;20041;-79
2022/10/30 07:46:14;;;;;;;5.05;4.30;;;19.50;92.40;;;19.41;63.63;99228.00;5026028;28;20042;-79
2022/10/30 07:48:40;;;;;;;5.28;4.25;;;19.50;92.40;;;19.41;63.67;99230.75;5015173;28;20068;-79
2022/10/30 07:51:06;;;;;;;6.90;4.53;;;19.50;92.40;;;19.43;63.42;99222.97;5030242;28;20048;-79
2022/10/30 07:53:34;;;;;;;4.57;3.97;;;19.50;92.40;;;19.46;63.26;99223.16;5039113;28;20042;-79
2022/10/30 07:56:00;;;;;;;5.13;4.10;;;19.50;92.40;;;19.47;63.24;99223.97;5022426;28;20091;-79
2022/10/30 07:58:26;;;;;;;4.50;4.07;;;19.50;92.40;;;19.49;63.53;99224.47;5050697;28;20194;-79
2022/10/30 08:00:55;;;;;;;5.72;4.03;;;19.50;92.40;;;19.46;63.52;99211.31;5044321;28;20042;-79
2022/10/30 08:03:21;;;;;;;4.38;3.58;;;19.60;92.40;;;19.48;63.35;99215.38;5038542;28;20229;-79
2022/10/30 08:05:50;;;;;;;5.25;3.85;;;19.60;92.40;;;19.47;63.36;99205.50;5028679;28;20552;-79
2022/10/30 08:08:16;;;;;;;5.50;4.57;;;19.60;92.80;;;19.50;63.38;99212.31;5051736;28;20500;-79
2022/10/30 08:10:42;;;;;;;5.15;3.88;;;19.60;92.40;;;19.52;63.14;99210.84;5043791;28;20048;-79
2022/10/30 08:13:08;;;;;;;5.18;3.90;;;19.60;92.40;;;19.53;63.00;99204.22;5025664;28;20132;-79
2022/10/30 08:15:34;;;;;;;5.85;4.63;;;19.60;92.40;;;19.58;63.35;99205.19;5022433;28;20064;-79
2022/10/30 08:18:00;;;;;;;5.68;4.20;;;19.60;92.40;;;19.56;63.47;99202.75;5040624;28;20041;-79
2022/10/30 08:20:26;;;;;;;5.10;3.75;;;19.60;92.40;;;19.55;63.23;99206.66;5036942;28;20064;-79
2022/10/30 08:22:55;;;;;;;6.57;5.20;;;19.60;92.40;;;19.57;63.06;99200.84;5058848;28;20051;-79
2022/10/30 08:25:24;;;;;;;4.32;3.92;;;19.60;92.40;;;19.56;62.97;99208.25;5034953;28;20049;-78
2022/10/30 08:28:02;;;;;;;6.22;3.83;;;19.70;92.40;;;19.59;63.02;99204.88;5042298;28;20136;-79
2022/10/30 08:30:31;;;;;;;4.72;4.18;;;19.70;92.40;;;19.64;62.88;99215.72;5025300;28;20477;-78
2022/10/30 08:32:58;;;;;;;5.28;3.78;;;19.70;92.40;;;19.64;63.13;99218.47;5057780;28;20663;-78
2022/10/30 08:35:24;;;;;;;6.60;4.68;;;19.70;92.40;;;19.66;62.84;99220.88;5005440;28;20041;-78
2022/10/30 08:37:57;;;;;;;5.80;3.88;;;19.70;92.40;;;19.68;62.45;99199.41;5030654;28;20427;-79
2022/10/30 08:40:24;;;;;;;6.22;4.68;;;19.80;92.40;;;19.69;62.53;99199.09;5016331;28;20037;-79
2022/10/30 08:42:54;;;;;;;7.55;5.07;;;19.80;92.40;;;19.72;62.33;99183.88;5028456;28;20044;-78
2022/10/30 08:45:20;;;;;;;7.60;5.43;;;19.80;92.30;;;19.72;62.67;99179.16;5014189;28;20048;-78
2022/10/30 08:47:47;;;;;;;8.98;4.95;;;19.80;92.40;;;19.70;62.68;99178.69;5021518;28;20725;-79
2022/10/30 08:50:13;;;;;;;8.20;5.35;;;19.80;92.40;;;19.75;62.46;99177.72;5042069;28;20051;-78
2022/10/30 08:52:39;;;;;;;14.23;5.95;;;19.80;92.50;;;19.74;62.05;99178.81;5029470;28;20048;-79
2022/10/30 08:55:07;;;;;;;11.02;6.03;;;19.80;92.30;;;19.77;62.17;99174.59;5017559;28;20056;-79
2022/10/30 08:57:36;;;;;;;11.35;6.85;;;19.80;92.30;;;19.80;62.00;99187.75;5030567;28;20470;-78
2022/10/30 09:00:04;;;;;;;10.07;6.35;;;19.90;92.30;;;19.83;61.87;99181.59;5027836;28;20029;-79
2022/10/30 09:02:30;;;;;;;11.70;6.90;;;19.90;92.30;;;19.86;61.87;99176.22;5036832;28;20198;-79
2022/10/30 09:04:56;;;;;;;14.00;7.20;;;19.90;92.30;;;19.86;61.91;99167.16;4998722;28;20045;-78
2022/10/30 09:07:22;;;;;;;13.48;7.22;;;19.90;92.30;;;19.85;61.98;99169.09;5005251;28;20045;-78
2022/10/30 09:09:48;;;;;;;13.50;7.70;;;19.90;92.30;;;19.87;61.56;99166.84;5031844;28;20045;-78
2022/10/30 09:12:15;;;;;;;15.00;8.05;;;20.00;92.30;;;19.84;61.79;99172.19;5022516;28;20366;-79
2022/10/30 09:14:42;;;;;;;16.15;7.95;;;20.00;92.20;;;19.85;61.63;99166.34;5053134;28;20114;-82
2022/10/30 09:17:08;;;;;;;16.15;8.55;;;19.90;92.20;;;19.84;61.62;99167.47;5026690;28;20045;-77
2022/10/30 09:19:34;;;;;;;19.85;9.48;;;19.90;92.20;;;19.83;62.12;99165.06;5007631;28;20148;-77
2022/10/30 09:22:00;;;;;;;32.30;9.13;;;20.00;92.30;;;19.83;61.91;99165.06;5039319;28;20121;-77
2022/10/30 09:24:27;;;;;;;23.27;9.98;;;20.00;92.30;;;19.84;62.47;99161.97;5035357;28;20045;-77
2022/10/30 09:26:54;;;;;;;19.75;9.20;;;20.00;92.40;;;19.86;62.18;99158.91;5058400;28;20044;-77
2022/10/30 09:29:21;;;;;;;19.67;9.93;;;20.00;92.30;;;19.86;61.86;99162.47;5030566;28;20045;-77
2022/10/30 09:31:50;;;;;;;20.45;10.35;;;20.00;92.20;;;19.88;61.49;99156.63;5028318;28;20047;-77
2022/10/30 09:34:16;;;;;;;24.27;10.07;;;20.00;92.20;;;19.90;61.80;99148.88;4985515;28;20123;-77
2022/10/30 09:36:46;;;;;;;17.80;9.50;;;20.00;92.60;;;19.91;61.94;99156.78;5058999;28;20802;-77
2022/10/30 09:39:12;;;;;;;22.98;10.25;;;20.00;92.20;;;19.94;61.64;99152.56;5057226;28;20050;-77
2022/10/30 09:41:44;;;;;;;15.27;9.52;;;20.10;92.20;;;19.93;61.71;99153.72;5037252;28;20076;-77
2022/10/30 09:44:27;;;;;;;23.67;9.63;;;20.10;92.20;;;19.95;61.67;99145.94;5032108;28;20064;-77
2022/10/30 09:47:16;;;;;;;19.17;8.98;;;20.10;92.20;;;19.98;61.24;99147.22;5053862;28;20041;-77
2022/10/30 09:49:48;;;;;;;19.42;9.73;;;20.10;92.10;;;19.97;61.44;99149.16;5038909;28;20045;-77
2022/10/30 09:52:26;;;;;;;21.45;10.40;;;20.10;92.10;;;19.99;61.11;99146.09;5034008;28;20053;-77
2022/10/30 09:55:20;;;;;;;17.65;9.18;;;20.10;92.10;;;19.98;61.60;99155.50;5042546;28;20493;-77
2022/10/30 09:58:05;;;;;;;23.30;9.88;;;20.10;92.10;;;19.94;61.64;99155.31;5063281;28;20041;-77
2022/10/30 10:00:36;;;;;;;24.55;9.88;;;20.20;92.10;;;19.95;61.73;99156.94;5060415;28;20045;-77
2022/10/30 10:03:18;;;;;;;;;;;20.20;92.10;;;19.97;61.41;99154.66;5048649;28;20127;-77
2022/10/30 10:05:52;;;;;;;19.08;9.30;;;20.20;92.10;;;20.01;61.24;99149.31;5061831;28;19924;-77
2022/10/30 10:08:27;;;;;;;24.17;10.60;;;20.20;92.10;;;20.06;61.16;99149.94;5035487;28;20127;-77
2022/10/30 10:10:58;;;;;;;21.90;9.90;;;20.20;92.10;;;20.09;61.00;99140.22;5031957;28;20049;-77
2022/10/30 10:13:47;;;;;;;23.58;8.60;;;20.20;92.10;;;20.06;60.78;99147.19;5062878;28;20052;-76
2022/10/30 10:16:20;;;;;;;16.52;8.32;;;20.20;92.10;;;20.02;61.08;99140.72;5017004;28;20048;-77
2022/10/30 10:19:13;;;;;;;19.65;8.50;;;20.20;92.10;;;20.05;61.27;99147.50;5061579;28;20108;-77
2022/10/30 10:21:44;;;;;;;17.67;10.35;;;20.20;92.10;;;20.11;60.67;99147.03;5060461;28;20131;-77
2022/10/30 10:24:21;;;;;;;16.42;9.38;;;20.30;92.10;;;20.14;60.59;99143.59;5006206;28;20055;-77